createdAt,value
2023-03-26T00:00:18.154Z,76.12
2023-03-26T00:01:18.256Z,76.12
2023-03-26T00:02:18.192Z,75.82
2023-03-26T00:03:18.168Z,75.82
2023-03-26T00:04:18.164Z,75.92
2023-03-26T00:05:18.155Z,76.02
2023-03-26T00:06:18.113Z,75.92
2023-03-26T00:07:18.123Z,75.92
2023-03-26T00:08:18.166Z,75.82
2023-03-26T00:09:18.071Z,75.82
2023-03-26T00:10:18.172Z,75.82
2023-03-26T00:11:18.079Z,75.72
2023-03-26T00:12:18.030Z,75.72
2023-03-26T00:13:18.029Z,75.92
2023-03-26T00:14:18.106Z,75.42
2023-03-26T00:15:18.037Z,75.95
2023-03-26T00:16:18.086Z,76.15
2023-03-26T00:17:18.026Z,76.15
2023-03-26T00:18:17.928Z,76.15
2023-03-26T00:19:17.986Z,75.95
2023-03-26T00:20:17.950Z,76.15
2023-03-26T00:21:17.957Z,75.95
2023-03-26T00:22:18.024Z,75.95
2023-03-26T00:23:17.897Z,76.06
2023-03-26T00:24:17.857Z,76.06
2023-03-26T00:25:17.942Z,75.85
2023-03-26T00:26:17.860Z,76.02
2023-03-26T00:27:18.694Z,75.92
2023-03-26T00:28:17.824Z,75.92
2023-03-26T00:29:17.833Z,75.72
2023-03-26T00:30:17.846Z,75.82
2023-03-26T00:31:17.943Z,75.82
2023-03-26T00:32:19.355Z,75.72
2023-03-26T00:33:17.786Z,75.52
2023-03-26T00:34:17.813Z,75.52
2023-03-26T00:35:17.819Z,75.52
2023-03-26T00:36:17.797Z,75.62
2023-03-26T00:37:17.794Z,75.62
2023-03-26T00:38:17.761Z,75.95
2023-03-26T00:39:17.981Z,76.15
2023-03-26T00:40:17.758Z,76.35
2023-03-26T00:41:17.998Z,76.68
2023-03-26T00:42:17.664Z,76.89
2023-03-26T00:43:17.771Z,76.98
2023-03-26T00:44:17.691Z,77.09
2023-03-26T00:45:17.707Z,77.09
2023-03-26T00:46:17.920Z,77.19
2023-03-26T00:47:17.698Z,77.19
2023-03-26T00:48:17.607Z,77.19
2023-03-26T00:49:17.718Z,77.28
2023-03-26T00:50:17.733Z,77.19
2023-03-26T00:51:17.755Z,77.19
2023-03-26T00:52:17.629Z,77.19
2023-03-26T00:53:17.642Z,77.19
2023-03-26T00:54:17.624Z,77.28
2023-03-26T00:55:17.670Z,77.38
2023-03-26T00:56:17.670Z,77.48
2023-03-26T00:57:28.885Z,77.58
2023-03-26T00:58:17.575Z,77.48
2023-03-26T00:59:17.657Z,77.28
2023-03-26T01:00:17.584Z,77.48
2023-03-26T01:01:17.644Z,77.58
2023-03-26T01:02:17.641Z,77.28
2023-03-26T01:03:27.959Z,77.38
2023-03-26T01:04:17.840Z,77.38
2023-03-26T01:05:17.579Z,77.48
2023-03-26T01:06:17.660Z,77.48
2023-03-26T01:07:18.870Z,77.38
2023-03-26T01:08:19.292Z,77.48
2023-03-26T01:09:18.271Z,77.38
2023-03-26T01:10:17.681Z,77.19
2023-03-26T01:11:18.389Z,77.19
2023-03-26T01:12:17.687Z,77.19
2023-03-26T01:13:18.113Z,77.09
2023-03-26T01:14:17.906Z,77.09
2023-03-26T01:15:17.805Z,77.19
2023-03-26T01:16:18.850Z,77.09
2023-03-26T01:17:18.117Z,76.98
2023-03-26T01:18:18.948Z,77.09
2023-03-26T01:19:20.602Z,77.19
2023-03-26T01:20:17.322Z,76.68
2023-03-26T01:21:17.345Z,76.79
2023-03-26T01:22:17.296Z,76.89
2023-03-26T01:23:17.298Z,76.89
2023-03-26T01:24:17.311Z,76.49
2023-03-26T01:25:17.313Z,76.98
2023-03-26T01:26:17.217Z,76.98
2023-03-26T01:27:17.200Z,77.09
2023-03-26T01:28:17.274Z,77.19
2023-03-26T01:29:17.248Z,77.19
2023-03-26T01:30:17.207Z,76.98
2023-03-26T01:31:17.312Z,76.98
2023-03-26T01:32:17.126Z,77.09
2023-03-26T01:33:17.360Z,77.09
2023-03-26T01:34:17.176Z,77.09
2023-03-26T01:35:17.245Z,76.79
2023-03-26T01:36:17.137Z,76.59
2023-03-26T01:37:17.212Z,76.49
2023-03-26T01:38:17.074Z,76.49
2023-03-26T01:39:17.082Z,76.49
2023-03-26T01:40:17.130Z,76.49
2023-03-26T01:41:17.190Z,76.29
2023-03-26T01:42:17.070Z,76.29
2023-03-26T01:43:17.184Z,76.29
2023-03-26T01:44:17.011Z,76.59
2023-03-26T01:45:17.120Z,76.68
2023-03-26T01:46:17.235Z,76.72
2023-03-26T01:47:17.026Z,76.79
2023-03-26T01:48:17.039Z,76.68
2023-03-26T01:49:17.031Z,76.59
2023-03-26T01:50:17.055Z,76.49
2023-03-26T01:51:17.057Z,76.39
2023-03-26T01:52:17.088Z,76.39
2023-03-26T01:53:17.473Z,76.39
2023-03-26T01:54:16.934Z,76.49
2023-03-26T01:55:16.981Z,76.49
2023-03-26T01:56:16.983Z,76.49
2023-03-26T01:57:17.041Z,76.59
2023-03-26T01:58:17.515Z,76.59
2023-03-26T01:59:16.955Z,76.59
2023-03-26T02:00:16.909Z,76.39
2023-03-26T02:01:16.923Z,76.39
2023-03-26T02:02:16.994Z,76.29
2023-03-26T02:03:16.991Z,76.39
2023-03-26T02:04:16.939Z,76.53
2023-03-26T02:05:16.841Z,76.72
2023-03-26T02:06:16.846Z,76.82
2023-03-26T02:07:16.757Z,77.12
2023-03-26T02:08:17.788Z,77.36
2023-03-26T02:09:16.864Z,77.46
2023-03-26T02:10:16.820Z,77.56
2023-03-26T02:11:16.773Z,77.66
2023-03-26T02:12:16.687Z,77.56
2023-03-26T02:13:16.733Z,77.66
2023-03-26T02:14:16.742Z,77.76
2023-03-26T02:15:16.807Z,77.95
2023-03-26T02:16:17.007Z,77.86
2023-03-26T02:17:16.622Z,78.06
2023-03-26T02:18:16.672Z,78.25
2023-03-26T02:19:16.752Z,78.35
2023-03-26T02:20:16.690Z,78.35
2023-03-26T02:21:17.574Z,78.45
2023-03-26T02:22:16.652Z,78.35
2023-03-26T02:23:16.606Z,78.25
2023-03-26T02:24:16.621Z,78.25
2023-03-26T02:25:16.580Z,78.25
2023-03-26T02:26:16.628Z,78.16
2023-03-26T02:27:16.584Z,77.95
2023-03-26T02:28:16.594Z,77.76
2023-03-26T02:29:16.546Z,77.76
2023-03-26T02:30:16.561Z,77.52
2023-03-26T02:31:16.553Z,77.62
2023-03-26T02:32:16.515Z,77.42
2023-03-26T02:33:16.518Z,77.22
2023-03-26T02:34:16.521Z,77.12
2023-03-26T02:35:16.464Z,77.12
2023-03-26T02:36:16.636Z,77.02
2023-03-26T02:37:16.448Z,76.92
2023-03-26T02:38:16.444Z,76.92
2023-03-26T02:39:16.506Z,76.68
2023-03-26T02:40:16.471Z,76.59
2023-03-26T02:41:16.421Z,76.39
2023-03-26T02:42:16.523Z,76.19
2023-03-26T02:43:16.432Z,76.29
2023-03-26T02:44:16.386Z,76.29
2023-03-26T02:45:16.489Z,76.19
2023-03-26T02:46:16.436Z,76.09
2023-03-26T02:47:16.311Z,76.29
2023-03-26T02:48:16.373Z,76.29
2023-03-26T02:49:16.407Z,76.39
2023-03-26T02:50:16.426Z,76.49
2023-03-26T02:51:16.363Z,76.49
2023-03-26T02:52:16.339Z,76.49
2023-03-26T02:53:16.336Z,76.62
2023-03-26T02:54:16.354Z,76.92
2023-03-26T02:55:16.358Z,77.02
2023-03-26T02:56:16.360Z,77.32
2023-03-26T02:57:16.389Z,77.32
2023-03-26T02:58:16.363Z,77.56
2023-03-26T02:59:16.281Z,77.66
2023-03-26T03:00:16.383Z,77.56
2023-03-26T03:01:16.339Z,77.56
2023-03-26T03:02:16.350Z,77.52
2023-03-26T03:03:16.247Z,77.42
2023-03-26T03:04:16.306Z,77.32
2023-03-26T03:05:16.218Z,77.12
2023-03-26T03:06:16.220Z,77.12
2023-03-26T03:07:16.165Z,77.12
2023-03-26T03:08:16.168Z,77.12
2023-03-26T03:09:16.141Z,77.02
2023-03-26T03:10:16.255Z,77.12
2023-03-26T03:11:16.099Z,77.22
2023-03-26T03:12:16.162Z,77.36
2023-03-26T03:13:16.174Z,77.46
2023-03-26T03:14:16.110Z,77.56
2023-03-26T03:15:16.080Z,77.66
2023-03-26T03:16:16.102Z,77.66
2023-03-26T03:17:16.033Z,77.66
2023-03-26T03:18:16.039Z,77.76
2023-03-26T03:19:16.048Z,77.76
2023-03-26T03:20:16.148Z,77.86
2023-03-26T03:21:16.027Z,77.95
2023-03-26T03:22:16.064Z,77.95
2023-03-26T03:23:15.946Z,78.16
2023-03-26T03:24:16.021Z,78.06
2023-03-26T03:25:15.937Z,78.06
2023-03-26T03:26:15.945Z,78.06
2023-03-26T03:27:15.950Z,78.06
2023-03-26T03:28:16.055Z,77.95
2023-03-26T03:29:15.874Z,78.06
2023-03-26T03:30:15.892Z,78.25
2023-03-26T03:31:15.933Z,78.16
2023-03-26T03:32:15.877Z,78.16
2023-03-26T03:33:15.888Z,78.16
2023-03-26T03:34:15.921Z,78.25
2023-03-26T03:35:15.901Z,78.16
2023-03-26T03:36:20.972Z,78.06
2023-03-26T03:37:15.910Z,77.95
2023-03-26T03:38:15.912Z,78.06
2023-03-26T03:39:15.832Z,78.06
2023-03-26T03:40:16.179Z,77.95
2023-03-26T03:41:15.793Z,78.06
2023-03-26T03:42:15.777Z,77.82
2023-03-26T03:43:15.790Z,77.72
2023-03-26T03:44:15.963Z,77.72
2023-03-26T03:45:16.214Z,77.82
2023-03-26T03:46:15.814Z,77.82
2023-03-26T03:47:15.725Z,77.72
2023-03-26T03:48:15.789Z,77.62
2023-03-26T03:49:15.790Z,77.62
2023-03-26T03:50:15.735Z,77.52
2023-03-26T03:51:15.746Z,77.82
2023-03-26T03:52:15.803Z,77.92
2023-03-26T03:53:15.710Z,78.06
2023-03-26T03:54:15.716Z,78.25
2023-03-26T03:55:15.623Z,78.35
2023-03-26T03:56:15.674Z,78.45
2023-03-26T03:57:15.736Z,78.35
2023-03-26T03:58:15.678Z,78.25
2023-03-26T03:59:15.661Z,78.45
2023-03-26T04:00:15.590Z,78.55
2023-03-26T04:01:15.633Z,78.65
2023-03-26T04:02:15.699Z,78.75
2023-03-26T04:03:15.691Z,78.85
2023-03-26T04:04:15.774Z,78.85
2023-03-26T04:05:15.593Z,78.75
2023-03-26T04:06:15.533Z,78.75
2023-03-26T04:07:15.531Z,78.75
2023-03-26T04:08:15.609Z,78.75
2023-03-26T04:09:15.673Z,78.75
2023-03-26T04:10:15.517Z,78.65
2023-03-26T04:11:15.520Z,78.65
2023-03-26T04:12:15.556Z,78.55
2023-03-26T04:13:15.504Z,78.55
2023-03-26T04:14:15.550Z,78.45
2023-03-26T04:15:15.557Z,78.35
2023-03-26T04:16:15.573Z,78.31
2023-03-26T04:17:15.511Z,78.22
2023-03-26T04:18:15.448Z,78.12
2023-03-26T04:19:15.450Z,78.12
2023-03-26T04:20:15.381Z,78.12
2023-03-26T04:21:15.463Z,78.22
2023-03-26T04:22:15.400Z,78.22
2023-03-26T04:23:15.302Z,78.31
2023-03-26T04:24:15.304Z,78.22
2023-03-26T04:25:15.741Z,78.45
2023-03-26T04:26:15.322Z,78.55
2023-03-26T04:27:15.302Z,78.65
2023-03-26T04:28:15.332Z,78.75
2023-03-26T04:29:15.342Z,78.75
2023-03-26T04:30:15.260Z,78.85
2023-03-26T04:31:15.716Z,78.95
2023-03-26T04:32:16.081Z,78.85
2023-03-26T04:33:16.153Z,78.65
2023-03-26T04:34:15.240Z,78.45
2023-03-26T04:35:15.255Z,78.45
2023-03-26T04:36:15.255Z,78.42
2023-03-26T04:37:15.158Z,78.42
2023-03-26T04:38:15.272Z,78.42
2023-03-26T04:39:15.184Z,78.45
2023-03-26T04:40:15.170Z,78.45
2023-03-26T04:41:15.189Z,78.35
2023-03-26T04:42:15.088Z,78.45
2023-03-26T04:43:15.237Z,78.42
2023-03-26T04:44:15.093Z,78.42
2023-03-26T04:45:15.125Z,78.42
2023-03-26T04:46:15.147Z,78.42
2023-03-26T04:47:15.332Z,78.42
2023-03-26T04:48:15.053Z,78.42
2023-03-26T04:49:15.120Z,78.42
2023-03-26T04:50:15.159Z,78.42
2023-03-26T04:51:15.105Z,78.31
2023-03-26T04:52:15.073Z,78.52
2023-03-26T04:53:15.062Z,78.35
2023-03-26T04:54:15.265Z,78.45
2023-03-26T04:55:14.974Z,78.55
2023-03-26T04:56:14.986Z,78.75
2023-03-26T04:57:15.054Z,78.95
2023-03-26T04:58:14.996Z,79.05
2023-03-26T04:59:15.026Z,79.15
2023-03-26T05:00:14.995Z,79.35
2023-03-26T05:01:15.261Z,79.35
2023-03-26T05:02:15.106Z,79.49
2023-03-26T05:03:14.938Z,79.58
2023-03-26T05:04:15.122Z,79.69
2023-03-26T05:05:14.920Z,79.88
2023-03-26T05:06:14.908Z,80.08
2023-03-26T05:07:14.909Z,80.32
2023-03-26T05:08:14.912Z,80.52
2023-03-26T05:09:15.161Z,80.62
2023-03-26T05:10:14.886Z,80.92
2023-03-26T05:11:14.857Z,81.12
2023-03-26T05:12:14.777Z,81.22
2023-03-26T05:13:14.873Z,81.32
2023-03-26T05:14:15.099Z,81.46
2023-03-26T05:15:15.618Z,81.56
2023-03-26T05:16:14.815Z,81.66
2023-03-26T05:17:15.002Z,81.66
2023-03-26T05:18:14.816Z,81.76
2023-03-26T05:19:14.688Z,81.76
2023-03-26T05:20:15.124Z,81.85
2023-03-26T05:21:14.805Z,81.85
2023-03-26T05:22:14.731Z,81.85
2023-03-26T05:23:14.649Z,81.56
2023-03-26T05:24:14.656Z,81.76
2023-03-26T05:25:15.364Z,81.66
2023-03-26T05:26:15.084Z,81.56
2023-03-26T05:27:14.761Z,81.66
2023-03-26T05:28:14.683Z,81.76
2023-03-26T05:29:14.592Z,81.85
2023-03-26T05:30:14.598Z,82.06
2023-03-26T05:31:14.598Z,82.15
2023-03-26T05:32:14.608Z,82.15
2023-03-26T05:33:15.619Z,82.15
2023-03-26T05:34:14.549Z,82.26
2023-03-26T05:35:14.549Z,82.15
2023-03-26T05:36:14.609Z,82.15
2023-03-26T05:37:14.539Z,82.15
2023-03-26T05:38:14.629Z,82.26
2023-03-26T05:39:14.559Z,82.26
2023-03-26T05:40:14.549Z,82.45
2023-03-26T05:41:14.473Z,82.59
2023-03-26T05:42:14.549Z,82.79
2023-03-26T05:43:14.567Z,82.79
2023-03-26T05:44:14.662Z,82.89
2023-03-26T05:45:14.594Z,82.69
2023-03-26T05:46:14.410Z,82.69
2023-03-26T05:47:14.401Z,82.56
2023-03-26T05:48:14.410Z,82.45
2023-03-26T05:49:15.354Z,82.35
2023-03-26T05:50:14.627Z,82.15
2023-03-26T05:51:14.422Z,82.06
2023-03-26T05:52:14.343Z,81.96
2023-03-26T05:53:14.351Z,81.85
2023-03-26T05:54:14.352Z,81.96
2023-03-26T05:55:14.445Z,82.15
2023-03-26T05:56:14.358Z,82.35
2023-03-26T05:57:14.451Z,82.50
2023-03-26T05:58:14.265Z,82.69
2023-03-26T05:59:14.275Z,82.69
2023-03-26T06:00:14.369Z,82.79
2023-03-26T06:01:14.295Z,82.79
2023-03-26T06:02:14.292Z,82.89
2023-03-26T06:03:14.544Z,83.00
2023-03-26T06:04:14.342Z,83.09
2023-03-26T06:05:14.224Z,83.09
2023-03-26T06:06:14.220Z,83.19
2023-03-26T06:07:14.234Z,83.19
2023-03-26T06:08:14.231Z,83.29
2023-03-26T06:09:14.238Z,83.29
2023-03-26T06:10:17.950Z,83.29
2023-03-26T06:11:14.156Z,83.39
2023-03-26T06:12:14.171Z,83.29
2023-03-26T06:13:14.244Z,83.39
2023-03-26T06:14:14.185Z,83.39
2023-03-26T06:15:14.177Z,83.53
2023-03-26T06:16:26.236Z,83.63
2023-03-26T06:17:14.091Z,83.63
2023-03-26T06:18:14.147Z,83.83
2023-03-26T06:19:14.155Z,83.73
2023-03-26T06:20:14.130Z,83.83
2023-03-26T06:21:14.137Z,83.93
2023-03-26T06:22:14.129Z,83.93
2023-03-26T06:23:14.108Z,83.93
2023-03-26T06:24:14.037Z,83.83
2023-03-26T06:25:14.062Z,83.93
2023-03-26T06:26:14.054Z,84.03
2023-03-26T06:27:13.965Z,84.13
2023-03-26T06:28:13.967Z,84.23
2023-03-26T06:29:13.992Z,84.43
2023-03-26T06:30:13.975Z,84.43
2023-03-26T06:31:14.092Z,84.57
2023-03-26T06:32:19.543Z,84.77
2023-03-26T06:33:14.015Z,84.87
2023-03-26T06:34:13.904Z,84.87
2023-03-26T06:35:14.004Z,84.97
2023-03-26T06:36:14.008Z,84.87
2023-03-26T06:37:14.230Z,84.77
2023-03-26T06:38:13.932Z,84.67
2023-03-26T06:39:13.949Z,84.53
2023-03-26T06:40:15.503Z,84.33
2023-03-26T06:41:13.944Z,84.13
2023-03-26T06:42:13.860Z,84.13
2023-03-26T06:43:13.973Z,84.03
2023-03-26T06:44:13.909Z,84.03
2023-03-26T06:45:13.946Z,84.03
2023-03-26T06:46:13.819Z,84.03
2023-03-26T06:47:13.792Z,84.03
2023-03-26T06:48:13.795Z,84.13
2023-03-26T06:49:13.779Z,84.13
2023-03-26T06:50:13.798Z,84.13
2023-03-26T06:51:13.816Z,84.13
2023-03-26T06:52:13.720Z,84.13
2023-03-26T06:53:13.721Z,84.13
2023-03-26T06:54:13.738Z,84.23
2023-03-26T06:55:13.718Z,84.23
2023-03-26T06:56:13.753Z,84.33
2023-03-26T06:57:13.811Z,84.23
2023-03-26T06:58:13.665Z,84.23
2023-03-26T06:59:13.643Z,84.23
2023-03-26T07:00:13.669Z,84.23
2023-03-26T07:01:13.723Z,84.13
2023-03-26T07:02:14.194Z,84.03
2023-03-26T07:03:13.672Z,84.03
2023-03-26T07:04:13.602Z,84.03
2023-03-26T07:05:13.592Z,83.73
2023-03-26T07:06:13.615Z,83.73
2023-03-26T07:07:13.603Z,83.63
2023-03-26T07:08:13.780Z,83.63
2023-03-26T07:09:13.587Z,83.53
2023-03-26T07:10:13.527Z,83.53
2023-03-26T07:11:13.637Z,83.53
2023-03-26T07:12:13.533Z,83.39
2023-03-26T07:13:13.551Z,83.29
2023-03-26T07:14:13.710Z,83.43
2023-03-26T07:15:13.629Z,83.43
2023-03-26T07:16:13.461Z,83.53
2023-03-26T07:17:13.465Z,83.53
2023-03-26T07:18:13.479Z,83.53
2023-03-26T07:19:13.483Z,83.73
2023-03-26T07:20:14.205Z,83.83
2023-03-26T07:21:13.454Z,83.93
2023-03-26T07:22:13.462Z,84.03
2023-03-26T07:23:13.405Z,84.23
2023-03-26T07:24:14.336Z,84.37
2023-03-26T07:25:13.482Z,84.57
2023-03-26T07:26:13.485Z,84.57
2023-03-26T07:27:14.417Z,84.77
2023-03-26T07:28:13.503Z,84.97
2023-03-26T07:29:13.415Z,84.97
2023-03-26T07:30:13.434Z,85.07
2023-03-26T07:31:13.358Z,85.27
2023-03-26T07:32:14.675Z,85.41
2023-03-26T07:33:13.351Z,85.51
2023-03-26T07:34:13.357Z,85.61
2023-03-26T07:35:13.355Z,85.51
2023-03-26T07:36:13.356Z,85.37
2023-03-26T07:37:13.354Z,85.27
2023-03-26T07:38:13.320Z,85.17
2023-03-26T07:39:14.304Z,85.07
2023-03-26T07:40:13.389Z,84.97
2023-03-26T07:41:13.289Z,84.87
2023-03-26T07:42:13.285Z,84.77
2023-03-26T07:43:13.311Z,84.77
2023-03-26T07:44:13.306Z,84.87
2023-03-26T07:45:14.176Z,84.87
2023-03-26T07:46:13.347Z,84.87
2023-03-26T07:47:13.232Z,84.77
2023-03-26T07:48:13.231Z,84.77
2023-03-26T07:49:13.230Z,84.77
2023-03-26T07:50:13.344Z,84.67
2023-03-26T07:51:13.759Z,84.67
2023-03-26T07:52:13.256Z,84.77
2023-03-26T07:53:13.148Z,84.87
2023-03-26T07:54:13.164Z,84.87
2023-03-26T07:55:13.169Z,84.77
2023-03-26T07:56:13.220Z,84.77
2023-03-26T07:57:13.702Z,84.77
2023-03-26T07:58:13.705Z,84.67
2023-03-26T07:59:13.041Z,84.57
2023-03-26T08:00:13.110Z,84.47
2023-03-26T08:01:13.035Z,84.23
2023-03-26T08:02:13.043Z,84.13
2023-03-26T08:03:13.179Z,83.93
2023-03-26T08:04:23.460Z,83.83
2023-03-26T08:05:12.969Z,83.83
2023-03-26T08:06:12.961Z,83.73
2023-03-26T08:07:13.036Z,83.73
2023-03-26T08:08:12.968Z,83.93
2023-03-26T08:09:12.986Z,84.03
2023-03-26T08:10:12.884Z,84.13
2023-03-26T08:11:12.887Z,84.17
2023-03-26T08:12:12.898Z,84.23
2023-03-26T08:13:12.978Z,84.13
2023-03-26T08:14:13.637Z,84.27
2023-03-26T08:15:12.994Z,84.37
2023-03-26T08:16:12.849Z,84.47
2023-03-26T08:17:12.829Z,84.57
2023-03-26T08:18:12.915Z,84.77
2023-03-26T08:19:12.915Z,84.87
2023-03-26T08:20:13.758Z,84.77
2023-03-26T08:21:12.939Z,84.97
2023-03-26T08:22:12.763Z,85.21
2023-03-26T08:23:12.765Z,85.21
2023-03-26T08:24:12.850Z,85.21
2023-03-26T08:25:13.074Z,85.11
2023-03-26T08:26:12.875Z,85.21
2023-03-26T08:27:12.848Z,85.01
2023-03-26T08:28:12.696Z,85.11
2023-03-26T08:29:12.804Z,85.21
2023-03-26T08:30:12.801Z,85.21
2023-03-26T08:31:12.841Z,85.31
2023-03-26T08:32:12.802Z,85.21
2023-03-26T08:33:12.713Z,85.21
2023-03-26T08:34:12.723Z,85.31
2023-03-26T08:35:12.764Z,85.51
2023-03-26T08:36:12.670Z,85.51
2023-03-26T08:37:12.672Z,85.51
2023-03-26T08:38:12.683Z,85.61
2023-03-26T08:39:12.653Z,85.51
2023-03-26T08:40:13.411Z,85.41
2023-03-26T08:41:12.689Z,85.51
2023-03-26T08:42:12.569Z,85.41
2023-03-26T08:43:12.681Z,85.41
2023-03-26T08:44:12.517Z,85.21
2023-03-26T08:45:12.598Z,85.31
2023-03-26T08:46:12.619Z,85.21
2023-03-26T08:47:12.538Z,85.11
2023-03-26T08:48:12.499Z,84.91
2023-03-26T08:49:12.553Z,84.67
2023-03-26T08:50:12.536Z,84.57
2023-03-26T08:51:12.564Z,84.47
2023-03-26T08:52:12.548Z,84.37
2023-03-26T08:53:12.579Z,84.27
2023-03-26T08:54:12.555Z,84.37
2023-03-26T08:55:12.521Z,84.27
2023-03-26T08:56:12.500Z,84.07
2023-03-26T08:57:12.572Z,84.07
2023-03-26T08:58:12.380Z,84.17
2023-03-26T08:59:12.569Z,84.17
2023-03-26T09:00:12.470Z,84.17
2023-03-26T09:01:12.408Z,84.47
2023-03-26T09:02:12.460Z,84.57
2023-03-26T09:03:12.443Z,84.57
2023-03-26T09:04:12.399Z,84.57
2023-03-26T09:05:12.402Z,84.57
2023-03-26T09:06:12.334Z,84.47
2023-03-26T09:07:13.186Z,84.47
2023-03-26T09:08:12.347Z,84.37
2023-03-26T09:09:19.064Z,84.37
2023-03-26T09:10:12.554Z,84.37
2023-03-26T09:11:12.262Z,84.17
2023-03-26T09:12:12.367Z,84.17
2023-03-26T09:13:12.356Z,84.17
2023-03-26T09:14:12.267Z,83.97
2023-03-26T09:15:12.220Z,84.07
2023-03-26T09:16:12.428Z,83.97
2023-03-26T09:17:12.233Z,84.07
2023-03-26T09:18:12.322Z,84.07
2023-03-26T09:19:12.227Z,83.77
2023-03-26T09:20:12.252Z,83.77
2023-03-26T09:21:12.133Z,83.63
2023-03-26T09:22:12.217Z,83.63
2023-03-26T09:23:13.899Z,83.43
2023-03-26T09:24:12.173Z,83.43
2023-03-26T09:25:12.136Z,83.33
2023-03-26T09:26:12.143Z,83.33
2023-03-26T09:27:12.076Z,83.53
2023-03-26T09:28:12.395Z,83.63
2023-03-26T09:29:12.096Z,83.77
2023-03-26T09:30:12.171Z,83.97
2023-03-26T09:31:12.134Z,84.07
2023-03-26T09:32:12.148Z,84.17
2023-03-26T09:33:12.539Z,84.17
2023-03-26T09:34:12.034Z,84.47
2023-03-26T09:35:13.568Z,84.47
2023-03-26T09:36:12.071Z,84.47
2023-03-26T09:37:11.976Z,84.37
2023-03-26T09:38:12.969Z,84.47
2023-03-26T09:39:12.047Z,84.37
2023-03-26T09:40:12.004Z,84.57
2023-03-26T09:41:12.006Z,84.81
2023-03-26T09:42:11.983Z,84.91
2023-03-26T09:43:11.995Z,85.11
2023-03-26T09:44:11.987Z,85.11
2023-03-26T09:45:11.991Z,85.31
2023-03-26T09:46:11.964Z,85.41
2023-03-26T09:47:12.007Z,85.41
2023-03-26T09:48:11.936Z,85.31
2023-03-26T09:49:11.882Z,85.41
2023-03-26T09:50:11.933Z,85.41
2023-03-26T09:51:11.879Z,85.41
2023-03-26T09:52:11.883Z,85.41
2023-03-26T09:53:11.885Z,85.51
2023-03-26T09:54:11.895Z,85.81
2023-03-26T09:55:11.796Z,85.85
2023-03-26T09:56:11.866Z,85.95
2023-03-26T09:57:11.848Z,86.05
2023-03-26T09:58:11.820Z,85.95
2023-03-26T09:59:11.773Z,85.95
2023-03-26T10:00:11.804Z,86.05
2023-03-26T10:01:11.857Z,86.05
2023-03-26T10:02:11.732Z,86.05
2023-03-26T10:03:11.735Z,86.05
2023-03-26T10:04:11.709Z,86.05
2023-03-26T10:05:11.754Z,86.05
2023-03-26T10:06:12.472Z,86.15
2023-03-26T10:07:11.663Z,86.15
2023-03-26T10:08:11.677Z,86.25
2023-03-26T10:09:11.747Z,86.25
2023-03-26T10:10:11.689Z,86.25
2023-03-26T10:11:11.687Z,86.15
2023-03-26T10:12:11.677Z,86.25
2023-03-26T10:13:14.906Z,86.25
2023-03-26T10:14:11.570Z,86.15
2023-03-26T10:15:11.689Z,86.25
2023-03-26T10:16:11.649Z,86.25
2023-03-26T10:17:11.623Z,86.01
2023-03-26T10:18:27.654Z,85.81
2023-03-26T10:19:11.609Z,85.61
2023-03-26T10:20:11.517Z,85.41
2023-03-26T10:21:11.835Z,85.21
2023-03-26T10:22:11.474Z,85.21
2023-03-26T10:23:11.460Z,84.87
2023-03-26T10:24:11.468Z,84.67
2023-03-26T10:25:11.445Z,84.37
2023-03-26T10:26:11.458Z,84.27
2023-03-26T10:27:11.453Z,84.13
2023-03-26T10:28:11.386Z,84.03
2023-03-26T10:29:11.393Z,84.03
2023-03-26T10:30:11.401Z,83.83
2023-03-26T10:31:11.414Z,83.53
2023-03-26T10:32:11.424Z,83.53
2023-03-26T10:33:11.504Z,83.83
2023-03-26T10:34:28.806Z,83.49
2023-03-26T10:35:11.336Z,83.39
2023-03-26T10:36:11.348Z,83.19
2023-03-26T10:37:11.350Z,83.09
2023-03-26T10:38:11.317Z,83.09
2023-03-26T10:39:11.421Z,82.59
2023-03-26T10:40:11.300Z,82.69
2023-03-26T10:41:11.308Z,82.79
2023-03-26T10:42:11.852Z,82.69
2023-03-26T10:43:12.488Z,82.39
2023-03-26T10:44:11.252Z,82.35
2023-03-26T10:45:11.297Z,82.35
2023-03-26T10:46:11.357Z,82.35
2023-03-26T10:47:11.224Z,81.46
2023-03-26T10:48:11.279Z,81.56
2023-03-26T10:49:11.177Z,81.76
2023-03-26T10:50:11.191Z,81.76
2023-03-26T10:51:11.188Z,81.76
2023-03-26T10:52:11.135Z,81.76
2023-03-26T10:53:11.205Z,81.46
2023-03-26T10:54:11.173Z,81.22
2023-03-26T10:55:11.127Z,80.12
2023-03-26T10:56:11.154Z,79.93
2023-03-26T10:57:11.164Z,80.02
2023-03-26T10:58:11.162Z,79.43
2023-03-26T10:59:11.083Z,79.22
2023-03-26T11:00:11.094Z,79.13
2023-03-26T11:01:11.096Z,79.33
2023-03-26T11:02:11.110Z,79.39
2023-03-26T11:03:11.188Z,78.99
2023-03-26T11:04:11.015Z,78.59
2023-03-26T11:05:11.107Z,78.59
2023-03-26T11:06:11.027Z,78.45
2023-03-26T11:07:11.100Z,78.06
2023-03-26T11:08:11.048Z,77.95
2023-03-26T11:09:11.018Z,77.16
2023-03-26T11:10:11.028Z,77.36
2023-03-26T11:11:11.029Z,77.56
2023-03-26T11:12:27.006Z,77.42
2023-03-26T11:13:10.989Z,77.12
2023-03-26T11:14:10.952Z,77.02
2023-03-26T11:15:10.989Z,76.72
2023-03-26T11:16:11.007Z,76.53
2023-03-26T11:17:14.502Z,76.23
2023-03-26T11:18:11.016Z,75.89
2023-03-26T11:19:10.924Z,75.69
2023-03-26T11:20:10.952Z,76.19
2023-03-26T11:21:19.899Z,75.59
2023-03-26T11:22:10.871Z,76.19
2023-03-26T11:23:10.842Z,76.19
2023-03-26T11:24:10.891Z,75.46
2023-03-26T11:25:10.864Z,74.86
2023-03-26T11:26:10.858Z,74.86
2023-03-26T11:27:15.403Z,75.06
2023-03-26T11:28:12.231Z,74.46
2023-03-26T11:29:32.757Z,74.37
2023-03-26T11:30:10.789Z,74.23
2023-03-26T11:31:10.814Z,74.52
2023-03-26T11:32:10.748Z,74.33
2023-03-26T11:33:10.864Z,74.13
2023-03-26T11:34:10.742Z,74.23
2023-03-26T11:35:10.822Z,73.93
2023-03-26T11:36:10.796Z,73.30
2023-03-26T11:37:10.768Z,72.90
2023-03-26T11:38:10.675Z,72.60
2023-03-26T11:39:10.711Z,73.20
2023-03-26T11:40:10.707Z,73.50
2023-03-26T11:41:10.715Z,72.97
2023-03-26T11:42:10.719Z,72.97
2023-03-26T11:43:10.717Z,72.37
2023-03-26T11:44:10.619Z,72.77
2023-03-26T11:45:10.626Z,72.86
2023-03-26T11:46:10.820Z,72.33
2023-03-26T11:47:10.641Z,70.65
2023-03-26T11:48:10.627Z,71.34
2023-03-26T11:49:10.557Z,70.75
2023-03-26T11:50:10.549Z,70.45
2023-03-26T11:51:10.575Z,70.95
2023-03-26T11:52:10.596Z,71.44
2023-03-26T11:53:10.587Z,71.14
2023-03-26T11:54:10.587Z,70.35
2023-03-26T11:55:11.418Z,71.44
2023-03-26T11:56:10.604Z,71.21
2023-03-26T11:57:10.519Z,70.91
2023-03-26T11:58:11.203Z,70.02
2023-03-26T11:59:10.523Z,70.72
2023-03-26T12:00:10.548Z,70.28
2023-03-26T12:01:10.437Z,70.48
2023-03-26T12:02:10.456Z,70.28
2023-03-26T12:03:10.478Z,69.89
2023-03-26T12:04:10.795Z,69.89
2023-03-26T12:05:10.474Z,69.39
2023-03-26T12:06:10.441Z,69.16
2023-03-26T12:07:10.365Z,69.65
2023-03-26T12:08:10.375Z,69.36
2023-03-26T12:09:10.398Z,68.07
2023-03-26T12:10:18.875Z,68.27
2023-03-26T12:11:10.414Z,68.27
2023-03-26T12:12:10.387Z,66.09
2023-03-26T12:13:10.307Z,67.08
2023-03-26T12:14:10.314Z,66.95
2023-03-26T12:15:10.318Z,66.75
2023-03-26T12:16:10.902Z,66.65
2023-03-26T12:17:10.336Z,66.06
2023-03-26T12:18:11.056Z,64.57
2023-03-26T12:19:10.240Z,66.75
2023-03-26T12:20:10.248Z,67.24
2023-03-26T12:21:10.297Z,64.47
2023-03-26T12:22:10.256Z,64.47
2023-03-26T12:23:10.273Z,65.66
2023-03-26T12:24:10.189Z,65.63
2023-03-26T12:25:10.188Z,65.13
2023-03-26T12:26:10.196Z,65.33
2023-03-26T12:27:10.206Z,65.40
2023-03-26T12:28:10.813Z,65.59
2023-03-26T12:29:10.218Z,64.81
2023-03-26T12:30:10.115Z,64.18
2023-03-26T12:31:10.123Z,64.38
2023-03-26T12:32:10.120Z,64.28
2023-03-26T12:33:10.163Z,64.58
2023-03-26T12:34:10.251Z,63.89
2023-03-26T12:35:10.142Z,63.09
2023-03-26T12:36:10.115Z,60.52
2023-03-26T12:37:10.056Z,59.73
2023-03-26T12:38:10.073Z,60.72
2023-03-26T12:39:42.985Z,60.03
2023-03-26T12:40:20.632Z,60.03
2023-03-26T12:43:51.460Z,60.32
2023-03-26T12:44:59.650Z,60.72
2023-03-26T12:45:06.320Z,59.63
2023-03-26T12:47:55.222Z,59.83
2023-03-26T12:48:08.569Z,60.32
2023-03-26T12:48:14.927Z,59.83
2023-03-26T12:49:15.033Z,60.10
2023-03-26T12:50:14.839Z,60.69
2023-03-26T12:51:16.875Z,60.00
2023-03-26T12:52:14.852Z,59.31
2023-03-26T12:53:14.788Z,59.20
2023-03-26T12:54:14.777Z,59.01